sensor_id;sensor_type;location;lat;lon;timestamp;P1;durP1;ratioP1;P2;durP2;ratioP2
3587;SDS011;1808;53.596;9.972;2023-03-14T00:02:13;15.55;;;4.60;;
3587;SDS011;1808;53.596;9.972;2023-03-14T00:04:39;12.57;;;3.72;;
3587;SDS011;1808;53.596;9.972;2023-03-14T00:07:07;10.52;;;4.13;;
3587;SDS011;1808;53.596;9.972;2023-03-14T00:09:33;9.82;;;3.83;;
3587;SDS011;1808;53.596;9.972;2023-03-14T00:11:59;7.90;;;3.25;;
3587;SDS011;1808;53.596;9.972;2023-03-14T00:14:28;7.70;;;3.67;;
3587;SDS011;1808;53.596;9.972;2023-03-14T00:16:54;11.10;;;4.18;;
3587;SDS011;1808;53.596;9.972;2023-03-14T00:19:20;9.55;;;3.38;;
3587;SDS011;1808;53.596;9.972;2023-03-14T00:21:47;9.18;;;4.63;;
3587;SDS011;1808;53.596;9.972;2023-03-14T00:24:15;8.07;;;3.45;;
3587;SDS011;1808;53.596;9.972;2023-03-14T00:26:41;10.02;;;3.15;;
3587;SDS011;1808;53.596;9.972;2023-03-14T00:29:07;6.82;;;3.10;;
3587;SDS011;1808;53.596;9.972;2023-03-14T00:31:34;8.38;;;2.90;;
3587;SDS011;1808;53.596;9.972;2023-03-14T00:34:01;7.80;;;3.83;;
3587;SDS011;1808;53.596;9.972;2023-03-14T00:36:27;9.45;;;3.05;;
3587;SDS011;1808;53.596;9.972;2023-03-14T00:38:54;10.35;;;3.80;;
3587;SDS011;1808;53.596;9.972;2023-03-14T00:41:22;9.73;;;2.75;;
3587;SDS011;1808;53.596;9.972;2023-03-14T00:43:49;9.38;;;3.63;;
3587;SDS011;1808;53.596;9.972;2023-03-14T00:46:16;9.77;;;2.60;;
3587;SDS011;1808;53.596;9.972;2023-03-14T00:48:43;8.02;;;2.72;;
3587;SDS011;1808;53.596;9.972;2023-03-14T00:51:10;8.50;;;2.88;;
3587;SDS011;1808;53.596;9.972;2023-03-14T00:53:38;13.60;;;3.55;;
3587;SDS011;1808;53.596;9.972;2023-03-14T00:56:06;8.75;;;3.05;;
3587;SDS011;1808;53.596;9.972;2023-03-14T00:58:35;8.93;;;3.22;;
3587;SDS011;1808;53.596;9.972;2023-03-14T01:01:05;8.00;;;2.90;;
3587;SDS011;1808;53.596;9.972;2023-03-14T01:03:32;8.30;;;2.85;;
3587;SDS011;1808;53.596;9.972;2023-03-14T01:06:06;8.40;;;3.03;;
3587;SDS011;1808;53.596;9.972;2023-03-14T01:08:33;10.00;;;2.95;;
3587;SDS011;1808;53.596;9.972;2023-03-14T01:10:59;16.65;;;3.80;;
3587;SDS011;1808;53.596;9.972;2023-03-14T01:13:26;10.95;;;2.92;;
3587;SDS011;1808;53.596;9.972;2023-03-14T01:15:53;8.10;;;2.97;;
3587;SDS011;1808;53.596;9.972;2023-03-14T01:18:20;9.35;;;3.15;;
3587;SDS011;1808;53.596;9.972;2023-03-14T01:20:46;9.52;;;3.13;;
3587;SDS011;1808;53.596;9.972;2023-03-14T01:23:13;10.80;;;2.88;;
3587;SDS011;1808;53.596;9.972;2023-03-14T01:25:40;10.52;;;2.83;;
3587;SDS011;1808;53.596;9.972;2023-03-14T01:28:07;11.43;;;3.17;;
3587;SDS011;1808;53.596;9.972;2023-03-14T01:30:33;12.43;;;3.55;;
3587;SDS011;1808;53.596;9.972;2023-03-14T01:33:01;13.75;;;3.50;;
3587;SDS011;1808;53.596;9.972;2023-03-14T01:35:28;11.52;;;2.95;;
3587;SDS011;1808;53.596;9.972;2023-03-14T01:37:54;12.50;;;2.90;;
3587;SDS011;1808;53.596;9.972;2023-03-14T01:40:20;10.98;;;3.80;;
3587;SDS011;1808;53.596;9.972;2023-03-14T01:42:52;8.73;;;2.88;;
3587;SDS011;1808;53.596;9.972;2023-03-14T01:48:26;8.93;;;3.35;;
3587;SDS011;1808;53.596;9.972;2023-03-14T01:50:54;11.20;;;3.38;;
3587;SDS011;1808;53.596;9.972;2023-03-14T01:53:21;10.25;;;3.28;;
3587;SDS011;1808;53.596;9.972;2023-03-14T01:55:48;8.68;;;2.97;;
3587;SDS011;1808;53.596;9.972;2023-03-14T01:58:14;13.93;;;3.70;;
3587;SDS011;1808;53.596;9.972;2023-03-14T02:00:41;5.85;;;2.38;;
3587;SDS011;1808;53.596;9.972;2023-03-14T02:03:09;10.50;;;3.63;;
3587;SDS011;1808;53.596;9.972;2023-03-14T02:05:39;10.35;;;3.83;;
3587;SDS011;1808;53.596;9.972;2023-03-14T02:08:07;8.50;;;3.00;;
3587;SDS011;1808;53.596;9.972;2023-03-14T02:10:37;11.52;;;3.67;;
3587;SDS011;1808;53.596;9.972;2023-03-14T02:13:05;8.80;;;3.35;;
3587;SDS011;1808;53.596;9.972;2023-03-14T02:15:32;10.15;;;3.92;;
3587;SDS011;1808;53.596;9.972;2023-03-14T02:17:59;11.18;;;3.80;;
3587;SDS011;1808;53.596;9.972;2023-03-14T02:20:28;11.57;;;3.63;;
3587;SDS011;1808;53.596;9.972;2023-03-14T02:22:58;11.73;;;4.03;;
3587;SDS011;1808;53.596;9.972;2023-03-14T02:25:26;13.15;;;4.28;;
3587;SDS011;1808;53.596;9.972;2023-03-14T02:27:59;12.38;;;4.07;;
3587;SDS011;1808;53.596;9.972;2023-03-14T02:30:27;11.90;;;3.63;;
3587;SDS011;1808;53.596;9.972;2023-03-14T02:32:56;14.90;;;3.60;;
3587;SDS011;1808;53.596;9.972;2023-03-14T02:35:26;12.57;;;3.60;;
3587;SDS011;1808;53.596;9.972;2023-03-14T02:37:55;15.05;;;4.43;;
3587;SDS011;1808;53.596;9.972;2023-03-14T02:40:23;7.88;;;3.28;;
3587;SDS011;1808;53.596;9.972;2023-03-14T02:42:50;11.52;;;4.65;;
3587;SDS011;1808;53.596;9.972;2023-03-14T02:45:32;9.10;;;3.53;;
3587;SDS011;1808;53.596;9.972;2023-03-14T02:48:02;12.65;;;4.00;;
3587;SDS011;1808;53.596;9.972;2023-03-14T02:50:31;8.32;;;4.05;;
3587;SDS011;1808;53.596;9.972;2023-03-14T02:52:59;9.07;;;4.10;;
3587;SDS011;1808;53.596;9.972;2023-03-14T02:55:25;11.75;;;4.90;;
3587;SDS011;1808;53.596;9.972;2023-03-14T02:57:52;10.73;;;4.53;;
3587;SDS011;1808;53.596;9.972;2023-03-14T03:00:18;8.05;;;3.78;;
3587;SDS011;1808;53.596;9.972;2023-03-14T03:02:46;10.27;;;4.85;;
3587;SDS011;1808;53.596;9.972;2023-03-14T03:05:13;11.23;;;4.47;;
3587;SDS011;1808;53.596;9.972;2023-03-14T03:07:39;11.52;;;4.30;;
3587;SDS011;1808;53.596;9.972;2023-03-14T03:10:06;10.77;;;3.92;;
3587;SDS011;1808;53.596;9.972;2023-03-14T03:12:33;11.25;;;4.80;;
3587;SDS011;1808;53.596;9.972;2023-03-14T03:14:59;11.27;;;4.65;;
3587;SDS011;1808;53.596;9.972;2023-03-14T03:17:25;15.20;;;4.50;;
3587;SDS011;1808;53.596;9.972;2023-03-14T03:19:53;15.13;;;4.60;;
3587;SDS011;1808;53.596;9.972;2023-03-14T03:22:19;11.75;;;4.60;;
3587;SDS011;1808;53.596;9.972;2023-03-14T03:24:45;11.35;;;4.45;;
3587;SDS011;1808;53.596;9.972;2023-03-14T03:27:12;8.27;;;4.10;;
3587;SDS011;1808;53.596;9.972;2023-03-14T03:29:38;12.43;;;5.20;;
3587;SDS011;1808;53.596;9.972;2023-03-14T03:32:04;10.60;;;3.90;;
3587;SDS011;1808;53.596;9.972;2023-03-14T03:34:30;9.18;;;3.67;;
3587;SDS011;1808;53.596;9.972;2023-03-14T03:36:58;13.55;;;4.40;;
3587;SDS011;1808;53.596;9.972;2023-03-14T03:39:24;8.63;;;4.28;;
3587;SDS011;1808;53.596;9.972;2023-03-14T03:41:51;10.27;;;3.63;;
3587;SDS011;1808;53.596;9.972;2023-03-14T03:44:17;9.15;;;3.30;;
3587;SDS011;1808;53.596;9.972;2023-03-14T03:46:43;9.98;;;4.57;;
3587;SDS011;1808;53.596;9.972;2023-03-14T03:49:10;11.65;;;4.78;;
3587;SDS011;1808;53.596;9.972;2023-03-14T03:51:36;14.63;;;4.15;;
3587;SDS011;1808;53.596;9.972;2023-03-14T03:54:04;10.02;;;3.22;;
3587;SDS011;1808;53.596;9.972;2023-03-14T03:56:30;9.05;;;3.40;;
3587;SDS011;1808;53.596;9.972;2023-03-14T03:58:57;14.30;;;3.88;;
3587;SDS011;1808;53.596;9.972;2023-03-14T04:01:23;7.85;;;3.75;;
3587;SDS011;1808;53.596;9.972;2023-03-14T04:03:49;10.40;;;4.03;;
3587;SDS011;1808;53.596;9.972;2023-03-14T04:06:16;12.10;;;3.95;;
3587;SDS011;1808;53.596;9.972;2023-03-14T04:08:42;12.43;;;4.55;;
3587;SDS011;1808;53.596;9.972;2023-03-14T04:11:10;10.20;;;3.40;;
3587;SDS011;1808;53.596;9.972;2023-03-14T04:13:36;8.77;;;3.55;;
3587;SDS011;1808;53.596;9.972;2023-03-14T04:16:03;11.98;;;4.40;;
3587;SDS011;1808;53.596;9.972;2023-03-14T04:18:29;7.45;;;3.40;;
3587;SDS011;1808;53.596;9.972;2023-03-14T04:20:56;9.90;;;4.00;;
3587;SDS011;1808;53.596;9.972;2023-03-14T04:23:23;10.43;;;3.92;;
3587;SDS011;1808;53.596;9.972;2023-03-14T04:25:50;10.50;;;4.05;;
3587;SDS011;1808;53.596;9.972;2023-03-14T04:28:18;12.77;;;3.72;;
3587;SDS011;1808;53.596;9.972;2023-03-14T04:30:45;13.55;;;3.45;;
3587;SDS011;1808;53.596;9.972;2023-03-14T04:33:11;8.38;;;3.90;;
3587;SDS011;1808;53.596;9.972;2023-03-14T04:35:42;7.57;;;3.30;;
3587;SDS011;1808;53.596;9.972;2023-03-14T04:38:08;9.98;;;3.80;;
3587;SDS011;1808;53.596;9.972;2023-03-14T04:40:36;11.23;;;3.97;;
3587;SDS011;1808;53.596;9.972;2023-03-14T04:43:02;7.85;;;3.75;;
3587;SDS011;1808;53.596;9.972;2023-03-14T04:45:30;16.58;;;4.65;;
3587;SDS011;1808;53.596;9.972;2023-03-14T04:47:56;10.95;;;4.72;;
3587;SDS011;1808;53.596;9.972;2023-03-14T04:50:22;11.55;;;3.65;;
3587;SDS011;1808;53.596;9.972;2023-03-14T04:52:49;11.02;;;4.38;;
3587;SDS011;1808;53.596;9.972;2023-03-14T04:55:15;13.35;;;4.75;;
3587;SDS011;1808;53.596;9.972;2023-03-14T04:57:42;8.98;;;4.13;;
3587;SDS011;1808;53.596;9.972;2023-03-14T05:00:08;11.40;;;4.13;;
3587;SDS011;1808;53.596;9.972;2023-03-14T05:02:37;9.63;;;3.63;;
3587;SDS011;1808;53.596;9.972;2023-03-14T05:05:03;9.63;;;2.67;;
3587;SDS011;1808;53.596;9.972;2023-03-14T05:07:30;5.68;;;2.08;;
3587;SDS011;1808;53.596;9.972;2023-03-14T05:09:56;9.40;;;2.58;;
3587;SDS011;1808;53.596;9.972;2023-03-14T05:12:23;4.95;;;2.35;;
3587;SDS011;1808;53.596;9.972;2023-03-14T05:14:49;5.80;;;2.10;;
3587;SDS011;1808;53.596;9.972;2023-03-14T05:17:15;8.82;;;2.70;;
3587;SDS011;1808;53.596;9.972;2023-03-14T05:19:44;3.63;;;2.03;;
3587;SDS011;1808;53.596;9.972;2023-03-14T05:22:10;8.07;;;2.83;;
3587;SDS011;1808;53.596;9.972;2023-03-14T05:24:37;10.45;;;2.30;;
3587;SDS011;1808;53.596;9.972;2023-03-14T05:27:04;6.78;;;3.30;;
3587;SDS011;1808;53.596;9.972;2023-03-14T05:29:30;9.80;;;3.13;;
3587;SDS011;1808;53.596;9.972;2023-03-14T05:31:57;7.53;;;3.17;;
3587;SDS011;1808;53.596;9.972;2023-03-14T05:34:23;9.27;;;3.58;;
3587;SDS011;1808;53.596;9.972;2023-03-14T05:36:51;12.57;;;3.65;;
3587;SDS011;1808;53.596;9.972;2023-03-14T05:39:17;9.90;;;4.10;;
3587;SDS011;1808;53.596;9.972;2023-03-14T05:41:43;11.93;;;3.95;;
3587;SDS011;1808;53.596;9.972;2023-03-14T05:44:10;8.80;;;3.90;;
3587;SDS011;1808;53.596;9.972;2023-03-14T05:46:36;13.13;;;4.72;;
3587;SDS011;1808;53.596;9.972;2023-03-14T05:49:02;10.32;;;4.63;;
3587;SDS011;1808;53.596;9.972;2023-03-14T05:51:29;13.27;;;4.95;;
3587;SDS011;1808;53.596;9.972;2023-03-14T05:53:56;12.05;;;5.45;;
3587;SDS011;1808;53.596;9.972;2023-03-14T05:56:23;12.23;;;5.35;;
3587;SDS011;1808;53.596;9.972;2023-03-14T05:58:49;17.88;;;5.25;;
3587;SDS011;1808;53.596;9.972;2023-03-14T06:01:15;11.05;;;5.68;;
3587;SDS011;1808;53.596;9.972;2023-03-14T06:03:42;15.63;;;6.45;;
3587;SDS011;1808;53.596;9.972;2023-03-14T06:06:08;14.50;;;7.55;;
3587;SDS011;1808;53.596;9.972;2023-03-14T06:08:34;12.85;;;6.20;;
3587;SDS011;1808;53.596;9.972;2023-03-14T06:11:03;14.95;;;6.03;;
3587;SDS011;1808;53.596;9.972;2023-03-14T06:13:30;17.23;;;7.88;;
3587;SDS011;1808;53.596;9.972;2023-03-14T06:15:56;23.38;;;7.65;;
3587;SDS011;1808;53.596;9.972;2023-03-14T06:18:23;21.02;;;7.75;;
3587;SDS011;1808;53.596;9.972;2023-03-14T06:20:49;21.20;;;7.10;;
3587;SDS011;1808;53.596;9.972;2023-03-14T06:23:19;17.90;;;7.28;;
3587;SDS011;1808;53.596;9.972;2023-03-14T06:25:45;20.60;;;6.65;;
3587;SDS011;1808;53.596;9.972;2023-03-14T06:28:13;17.45;;;8.30;;
3587;SDS011;1808;53.596;9.972;2023-03-14T06:30:39;15.98;;;7.50;;
3587;SDS011;1808;53.596;9.972;2023-03-14T06:33:06;12.85;;;6.75;;
3587;SDS011;1808;53.596;9.972;2023-03-14T06:35:33;13.63;;;8.10;;
3587;SDS011;1808;53.596;9.972;2023-03-14T06:38:00;18.75;;;8.68;;
3587;SDS011;1808;53.596;9.972;2023-03-14T06:40:26;17.75;;;8.45;;
3587;SDS011;1808;53.596;9.972;2023-03-14T06:42:52;17.17;;;7.63;;
3587;SDS011;1808;53.596;9.972;2023-03-14T06:45:20;17.13;;;6.95;;
3587;SDS011;1808;53.596;9.972;2023-03-14T06:47:46;19.58;;;7.38;;
3587;SDS011;1808;53.596;9.972;2023-03-14T06:50:13;20.80;;;8.82;;
3587;SDS011;1808;53.596;9.972;2023-03-14T06:52:40;20.75;;;6.90;;
3587;SDS011;1808;53.596;9.972;2023-03-14T06:55:11;18.77;;;8.15;;
3587;SDS011;1808;53.596;9.972;2023-03-14T06:57:37;16.85;;;8.07;;
3587;SDS011;1808;53.596;9.972;2023-03-14T07:00:04;14.48;;;6.55;;
3587;SDS011;1808;53.596;9.972;2023-03-14T07:02:32;14.25;;;5.28;;
3587;SDS011;1808;53.596;9.972;2023-03-14T07:04:58;13.52;;;7.63;;
3587;SDS011;1808;53.596;9.972;2023-03-14T07:07:25;10.65;;;5.63;;
3587;SDS011;1808;53.596;9.972;2023-03-14T07:09:51;14.05;;;5.35;;
3587;SDS011;1808;53.596;9.972;2023-03-14T07:12:18;9.75;;;4.03;;
3587;SDS011;1808;53.596;9.972;2023-03-14T07:14:44;11.15;;;4.95;;
3587;SDS011;1808;53.596;9.972;2023-03-14T07:17:10;11.65;;;4.40;;
3587;SDS011;1808;53.596;9.972;2023-03-14T07:19:38;9.07;;;4.03;;
3587;SDS011;1808;53.596;9.972;2023-03-14T07:22:04;10.27;;;3.97;;
3587;SDS011;1808;53.596;9.972;2023-03-14T07:24:31;11.20;;;3.72;;
3587;SDS011;1808;53.596;9.972;2023-03-14T07:26:57;13.18;;;3.63;;
3587;SDS011;1808;53.596;9.972;2023-03-14T07:29:24;7.88;;;3.40;;
3587;SDS011;1808;53.596;9.972;2023-03-14T07:31:50;6.10;;;2.47;;
3587;SDS011;1808;53.596;9.972;2023-03-14T07:34:16;7.65;;;2.78;;
3587;SDS011;1808;53.596;9.972;2023-03-14T07:36:45;7.05;;;2.28;;
3587;SDS011;1808;53.596;9.972;2023-03-14T07:39:12;8.50;;;3.05;;
3587;SDS011;1808;53.596;9.972;2023-03-14T07:41:38;9.60;;;3.15;;
3587;SDS011;1808;53.596;9.972;2023-03-14T07:44:04;6.90;;;3.13;;
3587;SDS011;1808;53.596;9.972;2023-03-14T07:46:31;10.18;;;3.10;;
3587;SDS011;1808;53.596;9.972;2023-03-14T07:48:57;11.88;;;4.00;;
3587;SDS011;1808;53.596;9.972;2023-03-14T07:51:23;9.48;;;4.00;;
3587;SDS011;1808;53.596;9.972;2023-03-14T07:53:51;13.25;;;4.90;;
3587;SDS011;1808;53.596;9.972;2023-03-14T07:56:17;7.35;;;3.47;;
3587;SDS011;1808;53.596;9.972;2023-03-14T07:58:44;10.52;;;3.28;;
3587;SDS011;1808;53.596;9.972;2023-03-14T08:01:10;7.85;;;3.35;;
3587;SDS011;1808;53.596;9.972;2023-03-14T08:03:36;8.75;;;2.83;;
3587;SDS011;1808;53.596;9.972;2023-03-14T08:06:03;6.75;;;2.28;;
3587;SDS011;1808;53.596;9.972;2023-03-14T08:08:29;6.85;;;2.45;;
3587;SDS011;1808;53.596;9.972;2023-03-14T08:10:57;10.25;;;2.85;;
3587;SDS011;1808;53.596;9.972;2023-03-14T08:13:28;9.27;;;2.50;;
3587;SDS011;1808;53.596;9.972;2023-03-14T08:15:55;4.75;;;2.70;;
3587;SDS011;1808;53.596;9.972;2023-03-14T08:18:21;5.07;;;2.00;;
3587;SDS011;1808;53.596;9.972;2023-03-14T08:20:47;5.53;;;2.42;;
3587;SDS011;1808;53.596;9.972;2023-03-14T08:23:14;5.40;;;1.90;;
3587;SDS011;1808;53.596;9.972;2023-03-14T08:25:40;6.53;;;1.70;;
3587;SDS011;1808;53.596;9.972;2023-03-14T08:28:08;5.15;;;1.98;;
3587;SDS011;1808;53.596;9.972;2023-03-14T08:30:34;4.80;;;2.35;;
3587;SDS011;1808;53.596;9.972;2023-03-14T08:33:00;5.10;;;2.30;;
3587;SDS011;1808;53.596;9.972;2023-03-14T08:35:27;7.60;;;2.30;;
3587;SDS011;1808;53.596;9.972;2023-03-14T08:37:53;7.32;;;2.55;;
3587;SDS011;1808;53.596;9.972;2023-03-14T08:40:20;7.57;;;2.30;;
3587;SDS011;1808;53.596;9.972;2023-03-14T08:42:47;12.27;;;4.05;;
3587;SDS011;1808;53.596;9.972;2023-03-14T08:45:15;7.47;;;2.70;;
3587;SDS011;1808;53.596;9.972;2023-03-14T08:47:42;5.95;;;3.17;;
3587;SDS011;1808;53.596;9.972;2023-03-14T08:50:09;8.05;;;2.78;;
3587;SDS011;1808;53.596;9.972;2023-03-14T08:52:36;8.48;;;3.47;;
3587;SDS011;1808;53.596;9.972;2023-03-14T08:55:05;9.68;;;4.18;;
3587;SDS011;1808;53.596;9.972;2023-03-14T08:57:32;10.23;;;3.22;;
3587;SDS011;1808;53.596;9.972;2023-03-14T08:59:58;11.57;;;4.00;;
3587;SDS011;1808;53.596;9.972;2023-03-14T09:02:26;8.48;;;4.00;;
3587;SDS011;1808;53.596;9.972;2023-03-14T09:04:53;13.07;;;5.00;;
3587;SDS011;1808;53.596;9.972;2023-03-14T09:07:19;9.07;;;4.75;;
3587;SDS011;1808;53.596;9.972;2023-03-14T09:09:46;10.95;;;4.47;;
3587;SDS011;1808;53.596;9.972;2023-03-14T09:12:12;11.20;;;4.60;;
3587;SDS011;1808;53.596;9.972;2023-03-14T09:14:39;10.52;;;4.30;;
3587;SDS011;1808;53.596;9.972;2023-03-14T09:17:05;15.35;;;4.95;;
3587;SDS011;1808;53.596;9.972;2023-03-14T09:19:34;11.23;;;5.35;;
3587;SDS011;1808;53.596;9.972;2023-03-14T09:22:00;14.88;;;4.75;;
3587;SDS011;1808;53.596;9.972;2023-03-14T09:24:26;11.93;;;5.15;;
3587;SDS011;1808;53.596;9.972;2023-03-14T09:26:54;9.20;;;4.38;;
3587;SDS011;1808;53.596;9.972;2023-03-14T09:29:20;14.60;;;7.07;;
3587;SDS011;1808;53.596;9.972;2023-03-14T09:31:46;12.93;;;5.20;;
3587;SDS011;1808;53.596;9.972;2023-03-14T09:34:13;11.70;;;5.10;;
3587;SDS011;1808;53.596;9.972;2023-03-14T09:36:41;11.27;;;5.00;;
3587;SDS011;1808;53.596;9.972;2023-03-14T09:39:09;13.23;;;4.38;;
3587;SDS011;1808;53.596;9.972;2023-03-14T09:41:36;10.75;;;4.78;;
3587;SDS011;1808;53.596;9.972;2023-03-14T09:44:05;16.15;;;4.88;;
3587;SDS011;1808;53.596;9.972;2023-03-14T09:46:33;11.30;;;5.07;;
3587;SDS011;1808;53.596;9.972;2023-03-14T09:49:03;8.60;;;4.43;;
3587;SDS011;1808;53.596;9.972;2023-03-14T09:51:35;7.95;;;3.85;;
3587;SDS011;1808;53.596;9.972;2023-03-14T09:54:03;5.43;;;1.83;;
3587;SDS011;1808;53.596;9.972;2023-03-14T09:56:31;6.93;;;1.60;;
3587;SDS011;1808;53.596;9.972;2023-03-14T09:58:59;3.08;;;1.40;;
3587;SDS011;1808;53.596;9.972;2023-03-14T10:01:27;2.97;;;1.67;;
3587;SDS011;1808;53.596;9.972;2023-03-14T10:03:55;6.35;;;2.00;;
3587;SDS011;1808;53.596;9.972;2023-03-14T10:06:25;10.68;;;2.38;;
3587;SDS011;1808;53.596;9.972;2023-03-14T10:08:52;3.67;;;1.65;;
3587;SDS011;1808;53.596;9.972;2023-03-14T10:11:21;4.97;;;1.75;;
3587;SDS011;1808;53.596;9.972;2023-03-14T10:13:49;5.07;;;1.60;;
3587;SDS011;1808;53.596;9.972;2023-03-14T10:16:17;3.72;;;1.83;;
3587;SDS011;1808;53.596;9.972;2023-03-14T10:18:44;6.90;;;2.60;;
3587;SDS011;1808;53.596;9.972;2023-03-14T10:21:16;5.38;;;1.48;;
3587;SDS011;1808;53.596;9.972;2023-03-14T10:23:44;4.05;;;1.40;;
3587;SDS011;1808;53.596;9.972;2023-03-14T10:26:12;7.15;;;1.58;;
3587;SDS011;1808;53.596;9.972;2023-03-14T10:28:42;3.55;;;0.90;;
3587;SDS011;1808;53.596;9.972;2023-03-14T10:31:10;2.10;;;0.90;;
3587;SDS011;1808;53.596;9.972;2023-03-14T10:33:37;2.78;;;1.10;;
3587;SDS011;1808;53.596;9.972;2023-03-14T10:36:05;2.95;;;1.10;;
3587;SDS011;1808;53.596;9.972;2023-03-14T10:38:40;4.38;;;1.10;;
3587;SDS011;1808;53.596;9.972;2023-03-14T10:41:14;3.95;;;1.17;;
3587;SDS011;1808;53.596;9.972;2023-03-14T10:43:43;4.03;;;0.65;;
3587;SDS011;1808;53.596;9.972;2023-03-14T10:46:12;4.95;;;0.77;;
3587;SDS011;1808;53.596;9.972;2023-03-14T10:48:40;2.28;;;0.60;;
3587;SDS011;1808;53.596;9.972;2023-03-14T10:51:07;2.58;;;0.77;;
3587;SDS011;1808;53.596;9.972;2023-03-14T10:53:41;2.28;;;0.60;;
3587;SDS011;1808;53.596;9.972;2023-03-14T10:56:13;1.67;;;0.60;;
3587;SDS011;1808;53.596;9.972;2023-03-14T10:58:41;2.38;;;0.80;;
3587;SDS011;1808;53.596;9.972;2023-03-14T11:01:14;4.45;;;0.60;;
3587;SDS011;1808;53.596;9.972;2023-03-14T11:03:48;2.83;;;0.70;;
3587;SDS011;1808;53.596;9.972;2023-03-14T11:06:19;2.90;;;0.70;;
3587;SDS011;1808;53.596;9.972;2023-03-14T11:08:49;1.88;;;0.88;;
3587;SDS011;1808;53.596;9.972;2023-03-14T11:11:20;3.33;;;0.90;;
3587;SDS011;1808;53.596;9.972;2023-03-14T11:13:53;2.15;;;0.57;;
3587;SDS011;1808;53.596;9.972;2023-03-14T11:16:26;3.20;;;0.40;;
3587;SDS011;1808;53.596;9.972;2023-03-14T11:19:10;4.47;;;0.95;;
3587;SDS011;1808;53.596;9.972;2023-03-14T11:21:46;3.67;;;0.75;;
3587;SDS011;1808;53.596;9.972;2023-03-14T11:24:25;2.28;;;0.80;;
3587;SDS011;1808;53.596;9.972;2023-03-14T11:27:00;3.55;;;0.80;;
3587;SDS011;1808;53.596;9.972;2023-03-14T11:29:32;4.22;;;1.55;;
3587;SDS011;1808;53.596;9.972;2023-03-14T11:32:10;6.68;;;0.82;;
3587;SDS011;1808;53.596;9.972;2023-03-14T11:34:39;2.28;;;0.77;;
3587;SDS011;1808;53.596;9.972;2023-03-14T11:37:12;3.67;;;1.05;;
3587;SDS011;1808;53.596;9.972;2023-03-14T11:39:41;2.97;;;0.52;;
3587;SDS011;1808;53.596;9.972;2023-03-14T11:42:11;2.40;;;0.88;;
3587;SDS011;1808;53.596;9.972;2023-03-14T11:44:39;5.85;;;0.90;;
3587;SDS011;1808;53.596;9.972;2023-03-14T11:47:08;5.60;;;0.75;;
3587;SDS011;1808;53.596;9.972;2023-03-14T11:49:38;4.00;;;0.83;;
3587;SDS011;1808;53.596;9.972;2023-03-14T11:52:08;5.38;;;0.90;;
3587;SDS011;1808;53.596;9.972;2023-03-14T11:54:37;4.68;;;0.95;;
3587;SDS011;1808;53.596;9.972;2023-03-14T11:57:10;4.13;;;1.45;;
3587;SDS011;1808;53.596;9.972;2023-03-14T11:59:40;8.07;;;1.27;;
3587;SDS011;1808;53.596;9.972;2023-03-14T12:02:13;6.75;;;1.17;;
3587;SDS011;1808;53.596;9.972;2023-03-14T12:04:48;6.88;;;0.85;;
3587;SDS011;1808;53.596;9.972;2023-03-14T12:07:20;3.03;;;1.60;;
3587;SDS011;1808;53.596;9.972;2023-03-14T12:09:48;9.20;;;1.33;;
3587;SDS011;1808;53.596;9.972;2023-03-14T12:12:16;8.80;;;1.08;;
3587;SDS011;1808;53.596;9.972;2023-03-14T12:14:45;14.43;;;1.58;;
3587;SDS011;1808;53.596;9.972;2023-03-14T12:17:21;5.13;;;0.75;;
3587;SDS011;1808;53.596;9.972;2023-03-14T12:19:58;12.57;;;1.75;;
3587;SDS011;1808;53.596;9.972;2023-03-14T12:22:26;9.02;;;1.27;;
3587;SDS011;1808;53.596;9.972;2023-03-14T12:24:55;5.97;;;1.02;;
3587;SDS011;1808;53.596;9.972;2023-03-14T12:27:41;5.20;;;1.33;;
3587;SDS011;1808;53.596;9.972;2023-03-14T12:30:17;8.50;;;1.42;;
3587;SDS011;1808;53.596;9.972;2023-03-14T12:35:49;10.75;;;1.58;;
3587;SDS011;1808;53.596;9.972;2023-03-14T12:38:17;6.20;;;1.20;;
3587;SDS011;1808;53.596;9.972;2023-03-14T12:40:50;8.07;;;1.85;;
3587;SDS011;1808;53.596;9.972;2023-03-14T12:43:24;5.57;;;0.85;;
3587;SDS011;1808;53.596;9.972;2023-03-14T12:46:06;11.25;;;2.05;;
3587;SDS011;1808;53.596;9.972;2023-03-14T12:48:36;9.75;;;1.48;;
3587;SDS011;1808;53.596;9.972;2023-03-14T12:51:04;7.30;;;1.05;;
3587;SDS011;1808;53.596;9.972;2023-03-14T12:53:53;7.55;;;1.27;;
3587;SDS011;1808;53.596;9.972;2023-03-14T12:56:36;7.47;;;1.38;;
3587;SDS011;1808;53.596;9.972;2023-03-14T13:01:58;7.57;;;2.13;;
3587;SDS011;1808;53.596;9.972;2023-03-14T13:04:31;6.93;;;2.10;;
3587;SDS011;1808;53.596;9.972;2023-03-14T13:06:59;15.48;;;3.33;;
3587;SDS011;1808;53.596;9.972;2023-03-14T13:09:45;19.30;;;2.13;;
3587;SDS011;1808;53.596;9.972;2023-03-14T13:12:17;14.98;;;1.80;;
3587;SDS011;1808;53.596;9.972;2023-03-14T13:14:45;17.92;;;2.88;;
3587;SDS011;1808;53.596;9.972;2023-03-14T13:17:13;16.00;;;2.80;;
3587;SDS011;1808;53.596;9.972;2023-03-14T13:19:41;16.92;;;2.70;;
3587;SDS011;1808;53.596;9.972;2023-03-14T13:22:14;12.60;;;2.28;;
3587;SDS011;1808;53.596;9.972;2023-03-14T13:24:43;11.15;;;1.85;;
3587;SDS011;1808;53.596;9.972;2023-03-14T13:27:13;14.75;;;3.08;;
3587;SDS011;1808;53.596;9.972;2023-03-14T13:29:43;11.88;;;1.70;;
3587;SDS011;1808;53.596;9.972;2023-03-14T13:32:13;18.88;;;2.67;;
3587;SDS011;1808;53.596;9.972;2023-03-14T13:34:45;12.13;;;2.10;;
3587;SDS011;1808;53.596;9.972;2023-03-14T13:37:15;8.38;;;2.13;;
3587;SDS011;1808;53.596;9.972;2023-03-14T13:39:42;16.80;;;3.03;;
3587;SDS011;1808;53.596;9.972;2023-03-14T13:42:10;10.60;;;1.30;;
3587;SDS011;1808;53.596;9.972;2023-03-14T13:44:39;11.35;;;2.30;;
3587;SDS011;1808;53.596;9.972;2023-03-14T13:47:09;10.63;;;1.38;;
3587;SDS011;1808;53.596;9.972;2023-03-14T13:49:38;5.28;;;1.65;;
3587;SDS011;1808;53.596;9.972;2023-03-14T13:54:59;7.65;;;1.80;;
3587;SDS011;1808;53.596;9.972;2023-03-14T13:57:26;15.98;;;1.52;;
3587;SDS011;1808;53.596;9.972;2023-03-14T13:59:59;13.23;;;1.73;;
3587;SDS011;1808;53.596;9.972;2023-03-14T14:02:26;12.43;;;2.03;;
3587;SDS011;1808;53.596;9.972;2023-03-14T14:04:53;6.85;;;1.50;;
3587;SDS011;1808;53.596;9.972;2023-03-14T14:07:19;13.38;;;1.90;;
3587;SDS011;1808;53.596;9.972;2023-03-14T14:09:46;13.25;;;1.55;;
3587;SDS011;1808;53.596;9.972;2023-03-14T14:12:15;9.50;;;2.20;;
3587;SDS011;1808;53.596;9.972;2023-03-14T14:14:42;7.38;;;1.63;;
3587;SDS011;1808;53.596;9.972;2023-03-14T14:17:10;9.15;;;1.45;;
3587;SDS011;1808;53.596;9.972;2023-03-14T14:19:37;13.93;;;2.47;;
3587;SDS011;1808;53.596;9.972;2023-03-14T14:22:04;5.85;;;1.13;;
3587;SDS011;1808;53.596;9.972;2023-03-14T14:24:31;7.32;;;1.52;;
3587;SDS011;1808;53.596;9.972;2023-03-14T14:26:59;12.35;;;1.38;;
3587;SDS011;1808;53.596;9.972;2023-03-14T14:29:27;11.55;;;2.13;;
3587;SDS011;1808;53.596;9.972;2023-03-14T14:32:01;14.70;;;1.65;;
3587;SDS011;1808;53.596;9.972;2023-03-14T14:34:27;9.15;;;2.00;;
3587;SDS011;1808;53.596;9.972;2023-03-14T14:36:53;8.65;;;2.00;;
3587;SDS011;1808;53.596;9.972;2023-03-14T14:39:20;12.23;;;1.55;;
3587;SDS011;1808;53.596;9.972;2023-03-14T14:41:47;4.57;;;0.93;;
3587;SDS011;1808;53.596;9.972;2023-03-14T14:44:16;7.38;;;1.75;;
3587;SDS011;1808;53.596;9.972;2023-03-14T14:46:44;6.22;;;1.63;;
3587;SDS011;1808;53.596;9.972;2023-03-14T14:49:12;5.53;;;0.82;;
3587;SDS011;1808;53.596;9.972;2023-03-14T14:51:40;6.72;;;1.33;;
3587;SDS011;1808;53.596;9.972;2023-03-14T14:54:12;7.50;;;1.30;;
3587;SDS011;1808;53.596;9.972;2023-03-14T14:56:39;5.38;;;1.45;;
3587;SDS011;1808;53.596;9.972;2023-03-14T14:59:06;8.55;;;1.38;;
3587;SDS011;1808;53.596;9.972;2023-03-14T15:01:33;7.88;;;1.70;;
3587;SDS011;1808;53.596;9.972;2023-03-14T15:04:01;7.22;;;1.60;;
3587;SDS011;1808;53.596;9.972;2023-03-14T15:06:29;5.13;;;1.38;;
3587;SDS011;1808;53.596;9.972;2023-03-14T15:08:57;7.05;;;2.08;;
3587;SDS011;1808;53.596;9.972;2023-03-14T15:11:24;6.10;;;1.58;;
3587;SDS011;1808;53.596;9.972;2023-03-14T15:13:50;11.27;;;1.70;;
3587;SDS011;1808;53.596;9.972;2023-03-14T15:16:17;8.07;;;1.58;;
3587;SDS011;1808;53.596;9.972;2023-03-14T15:18:44;7.07;;;1.65;;
3587;SDS011;1808;53.596;9.972;2023-03-14T15:21:14;10.82;;;1.85;;
3587;SDS011;1808;53.596;9.972;2023-03-14T15:23:40;14.05;;;2.08;;
3587;SDS011;1808;53.596;9.972;2023-03-14T15:26:09;14.30;;;1.77;;